createdAt,value
2023-05-16T00:01:56.100Z,12.15
2023-05-16T00:31:59.115Z,13.60
2023-05-16T01:02:02.757Z,13.10
2023-05-16T01:32:06.138Z,13.13
2023-05-16T02:02:09.128Z,10.00
2023-05-16T02:32:12.230Z,3.38
2023-05-16T03:02:15.214Z,2.35
2023-05-16T03:32:18.147Z,1.27
2023-05-16T04:02:21.168Z,1.13
2023-05-16T04:32:24.263Z,1.50
2023-05-16T05:02:27.377Z,1.40
2023-05-16T05:32:30.560Z,0.65
2023-05-16T06:02:33.746Z,0.80
2023-05-16T06:32:36.823Z,1.20
2023-05-16T07:02:40.010Z,2.05
2023-05-16T07:32:43.120Z,2.40
2023-05-16T08:02:46.251Z,3.30
2023-05-16T08:32:49.314Z,2.08
2023-05-16T09:02:53.929Z,1.52
2023-05-16T09:32:46.234Z,1.35
2023-05-16T09:32:59.077Z,1.70
2023-05-16T09:33:12.188Z,1.63
2023-05-16T09:33:23.860Z,1.90
2023-05-16T09:33:35.576Z,2.00
2023-05-16T09:33:47.559Z,2.10
2023-05-16T09:34:00.278Z,2.05
2023-05-16T09:34:12.831Z,1.98
2023-05-16T09:34:24.465Z,1.67
2023-05-16T09:34:39.037Z,1.70
2023-05-16T09:34:51.616Z,1.77
2023-05-16T09:35:03.541Z,1.80
2023-05-16T09:35:19.396Z,1.83
2023-05-16T09:35:43.937Z,2.00
2023-05-16T09:35:58.228Z,1.90
2023-05-16T09:36:10.396Z,1.70
2023-05-16T09:36:22.037Z,1.65
2023-05-16T09:36:33.819Z,1.52
2023-05-16T09:36:46.781Z,1.60
2023-05-16T09:36:59.707Z,1.80
2023-05-16T09:37:11.758Z,1.77
2023-05-16T09:37:25.705Z,1.70
2023-05-16T09:37:37.362Z,1.50
2023-05-16T09:37:50.019Z,1.63
2023-05-16T09:38:02.572Z,1.70
2023-05-16T09:38:15.474Z,1.70
2023-05-16T09:38:27.896Z,1.77
2023-05-16T09:38:39.523Z,1.70
2023-05-16T09:38:52.267Z,1.77
2023-05-16T09:39:03.931Z,1.73
2023-05-16T09:39:15.759Z,1.70
2023-05-16T09:39:27.723Z,1.60
2023-05-16T09:39:42.866Z,1.67
2023-05-16T09:39:54.948Z,1.70
2023-05-16T09:40:08.618Z,1.63
2023-05-16T09:40:20.918Z,1.90
2023-05-16T09:40:32.570Z,2.10
2023-05-16T09:40:44.931Z,1.92
2023-05-16T09:40:57.776Z,1.77
2023-05-16T09:41:10.149Z,2.03
2023-05-16T09:41:22.174Z,2.00
2023-05-16T09:41:34.145Z,1.85
2023-05-16T09:41:45.915Z,1.70
2023-05-16T09:41:59.153Z,1.70
2023-05-16T09:42:11.499Z,1.73
2023-05-16T09:42:26.350Z,1.70
2023-05-16T09:42:38.117Z,1.73
2023-05-16T09:43:04.621Z,1.77
2023-05-16T09:43:17.604Z,1.70
2023-05-16T09:43:29.793Z,1.58
2023-05-16T09:43:43.624Z,1.53
2023-05-16T09:43:55.615Z,1.70
2023-05-16T09:44:07.380Z,1.60
2023-05-16T09:44:19.161Z,1.80
2023-05-16T09:44:31.682Z,1.83
2023-05-16T09:44:46.782Z,1.85
2023-05-16T09:44:59.393Z,1.75
2023-05-16T09:45:12.916Z,1.70
2023-05-16T09:45:24.685Z,1.70
2023-05-16T09:45:36.930Z,1.67
2023-05-16T09:45:49.122Z,1.52
2023-05-16T09:46:02.716Z,1.40
2023-05-16T09:46:15.073Z,1.77
2023-05-16T09:46:28.644Z,1.83
2023-05-16T09:46:41.127Z,1.80
2023-05-16T09:46:54.444Z,1.90
2023-05-16T09:47:06.386Z,1.77
2023-05-16T09:47:19.705Z,1.63
2023-05-16T09:47:31.312Z,1.65
2023-05-16T09:47:46.560Z,1.90
2023-05-16T09:48:02.451Z,1.85
2023-05-16T09:48:14.983Z,1.55
2023-05-16T09:48:28.566Z,1.60
2023-05-16T09:48:42.296Z,1.60
2023-05-16T09:48:55.333Z,1.70
2023-05-16T09:49:07.010Z,1.52
2023-05-16T09:49:19.022Z,1.38
2023-05-16T09:49:30.914Z,1.40
2023-05-16T09:49:43.755Z,1.60
2023-05-16T09:49:56.606Z,1.67
2023-05-16T09:50:08.972Z,1.50
2023-05-16T09:50:20.689Z,1.50
2023-05-16T09:50:33.471Z,1.48
2023-05-16T09:50:51.095Z,1.40
2023-05-16T09:51:06.832Z,1.42
2023-05-16T09:51:22.316Z,1.60
2023-05-16T09:51:34.499Z,1.60
2023-05-16T09:51:46.412Z,1.63
2023-05-16T09:52:01.126Z,1.60
2023-05-16T09:52:14.451Z,1.58
2023-05-16T09:52:26.996Z,1.50
2023-05-16T09:52:38.629Z,1.40
2023-05-16T09:52:51.059Z,1.40
2023-05-16T09:53:03.013Z,1.42
2023-05-16T09:53:14.622Z,1.63
2023-05-16T09:53:28.558Z,1.70
2023-05-16T09:53:41.578Z,1.75
2023-05-16T09:53:53.229Z,1.63
2023-05-16T09:54:07.991Z,1.50
2023-05-16T09:54:29.968Z,1.70
2023-05-16T09:54:42.579Z,1.70
2023-05-16T09:54:54.804Z,1.60
2023-05-16T09:55:07.457Z,1.40
2023-05-16T09:55:19.263Z,1.40
2023-05-16T09:55:31.340Z,1.40
2023-05-16T09:55:43.334Z,1.40
2023-05-16T09:56:03.421Z,1.60
2023-05-16T09:56:15.833Z,1.92
2023-05-16T09:56:27.485Z,1.92
2023-05-16T09:56:49.118Z,1.80
2023-05-16T09:57:02.853Z,1.73
2023-05-16T09:57:19.257Z,1.60
2023-05-16T09:57:30.978Z,1.50
2023-05-16T09:57:42.614Z,1.60
2023-05-16T09:57:55.353Z,1.70
2023-05-16T09:58:06.965Z,1.70
2023-05-16T09:58:18.843Z,1.60
2023-05-16T09:58:31.293Z,1.58
2023-05-16T09:58:46.051Z,1.63
2023-05-16T09:59:00.274Z,1.60
2023-05-16T09:59:11.992Z,1.52
2023-05-16T09:59:23.947Z,1.50
2023-05-16T09:59:36.498Z,1.65
2023-05-16T09:59:48.323Z,1.65
2023-05-16T10:00:02.004Z,1.67
2023-05-16T10:00:14.885Z,1.60
2023-05-16T10:00:30.022Z,1.50
2023-05-16T10:00:41.736Z,1.60
2023-05-16T10:00:53.594Z,1.80
2023-05-16T10:01:07.335Z,1.80
2023-05-16T10:01:19.435Z,1.48
2023-05-16T10:01:31.255Z,1.50
2023-05-16T10:01:43.807Z,1.65
2023-05-16T10:01:57.775Z,1.80
2023-05-16T10:02:11.506Z,1.90
2023-05-16T10:02:23.455Z,1.70
2023-05-16T10:02:35.701Z,1.60
2023-05-16T10:02:49.844Z,1.50
2023-05-16T10:03:04.879Z,1.70
2023-05-16T10:03:18.086Z,1.67
2023-05-16T10:03:31.539Z,1.50
2023-05-16T10:03:43.711Z,1.60
2023-05-16T10:03:55.686Z,1.90
2023-05-16T10:04:10.482Z,1.80
2023-05-16T10:04:24.846Z,1.60
2023-05-16T10:04:36.810Z,1.60
2023-05-16T10:04:49.458Z,1.60
2023-05-16T10:05:01.196Z,1.42
2023-05-16T10:05:12.779Z,1.50
2023-05-16T10:05:24.981Z,1.63
2023-05-16T10:05:36.831Z,1.70
2023-05-16T10:05:48.471Z,1.60
2023-05-16T10:06:01.257Z,1.42
2023-05-16T10:06:13.665Z,1.60
2023-05-16T10:06:26.014Z,1.70
2023-05-16T10:06:40.304Z,1.70
2023-05-16T10:06:52.318Z,1.50
2023-05-16T10:07:04.920Z,1.55
2023-05-16T10:07:17.668Z,1.55
2023-05-16T10:07:32.784Z,1.55
2023-05-16T10:07:44.572Z,1.60
2023-05-16T10:07:57.193Z,1.52
2023-05-16T10:08:09.658Z,1.50
2023-05-16T10:08:21.994Z,1.50
2023-05-16T10:08:36.740Z,1.52
2023-05-16T10:08:48.802Z,1.50
2023-05-16T10:09:03.062Z,1.60
2023-05-16T10:09:16.313Z,1.50
2023-05-16T10:09:28.869Z,1.42
2023-05-16T10:09:41.849Z,1.48
2023-05-16T10:09:54.757Z,1.40
2023-05-16T10:10:08.248Z,1.63
2023-05-16T10:10:20.507Z,1.52
2023-05-16T10:10:35.698Z,1.60
2023-05-16T10:10:51.504Z,1.52
2023-05-16T10:11:04.026Z,1.50
2023-05-16T10:11:16.894Z,1.45
2023-05-16T10:11:28.633Z,1.48
2023-05-16T10:11:42.560Z,1.50
2023-05-16T10:11:55.975Z,1.30
2023-05-16T10:12:09.425Z,1.20
2023-05-16T10:12:27.533Z,1.25
2023-05-16T10:12:39.662Z,1.45
2023-05-16T10:12:51.746Z,1.45
2023-05-16T10:13:05.827Z,1.40
2023-05-16T10:13:21.518Z,1.50
2023-05-16T10:13:34.737Z,1.45
2023-05-16T10:13:50.457Z,1.33
2023-05-16T10:14:03.067Z,1.48
2023-05-16T10:14:17.984Z,1.60
2023-05-16T10:14:30.667Z,1.60
2023-05-16T10:14:42.433Z,1.30
2023-05-16T10:14:54.134Z,1.23
2023-05-16T10:15:07.621Z,1.23
2023-05-16T10:15:19.951Z,1.40
2023-05-16T10:15:34.298Z,1.50
2023-05-16T10:15:46.701Z,1.48
2023-05-16T10:16:00.458Z,1.40
2023-05-16T10:16:12.786Z,1.30
2023-05-16T10:16:26.754Z,1.30
2023-05-16T10:16:40.741Z,1.30
2023-05-16T10:16:53.136Z,1.30
2023-05-16T10:17:07.073Z,1.52
2023-05-16T10:17:19.033Z,1.67
2023-05-16T10:17:32.751Z,1.50
2023-05-16T10:17:52.569Z,1.40
2023-05-16T10:18:04.931Z,1.30
2023-05-16T10:18:18.209Z,1.40
2023-05-16T10:18:30.905Z,1.50
2023-05-16T10:18:42.848Z,1.40
2023-05-16T10:18:56.241Z,1.30
2023-05-16T10:19:07.935Z,1.40
2023-05-16T10:19:21.857Z,1.40
2023-05-16T10:19:36.241Z,1.30
2023-05-16T10:19:48.624Z,1.40
2023-05-16T10:20:01.999Z,1.30
2023-05-16T10:20:14.784Z,1.30
2023-05-16T10:20:26.924Z,1.40
2023-05-16T10:20:40.046Z,1.48
2023-05-16T10:20:53.825Z,1.40
2023-05-16T10:21:10.477Z,1.33
2023-05-16T10:21:25.734Z,1.40
2023-05-16T10:21:38.990Z,1.50
2023-05-16T10:21:54.642Z,1.55
2023-05-16T10:22:07.245Z,1.48
2023-05-16T10:22:20.104Z,1.50
2023-05-16T10:22:33.295Z,1.50
2023-05-16T10:22:46.341Z,1.40
2023-05-16T10:22:58.477Z,1.50
2023-05-16T10:23:12.865Z,1.60
2023-05-16T10:23:26.324Z,1.48
2023-05-16T10:23:39.272Z,1.35
2023-05-16T10:23:51.824Z,1.50
2023-05-16T10:24:05.657Z,1.50
2023-05-16T10:24:18.494Z,1.40
2023-05-16T10:24:34.395Z,1.50
2023-05-16T10:24:49.023Z,1.65
2023-05-16T10:25:06.200Z,1.80
2023-05-16T10:25:20.719Z,1.70
2023-05-16T10:25:36.015Z,1.55
2023-05-16T10:25:49.115Z,1.60
2023-05-16T10:26:03.447Z,1.50
2023-05-16T10:26:17.477Z,1.55
2023-05-16T10:26:29.832Z,1.60
2023-05-16T10:26:42.588Z,1.48
2023-05-16T10:26:54.332Z,1.30
2023-05-16T10:27:06.253Z,1.30
2023-05-16T10:27:19.414Z,1.33
2023-05-16T10:27:31.389Z,1.30
2023-05-16T10:27:43.150Z,1.33
2023-05-16T10:27:55.999Z,1.50
2023-05-16T10:28:08.650Z,1.50
2023-05-16T10:28:20.756Z,1.48
2023-05-16T10:28:33.076Z,1.30
2023-05-16T10:28:46.586Z,1.30
2023-05-16T10:28:58.702Z,1.40
2023-05-16T10:29:10.557Z,1.52
2023-05-16T10:29:22.834Z,1.42
2023-05-16T10:29:46.503Z,1.40
2023-05-16T10:30:09.985Z,1.40
2023-05-16T10:30:22.372Z,1.40
2023-05-16T10:30:34.299Z,1.38
2023-05-16T10:30:46.893Z,1.40
2023-05-16T10:30:59.466Z,1.30
2023-05-16T10:31:13.511Z,1.20
2023-05-16T10:31:25.686Z,1.40
2023-05-16T10:31:37.650Z,1.60
2023-05-16T10:31:49.464Z,1.70
2023-05-16T10:32:01.615Z,1.38
2023-05-16T10:32:13.838Z,1.30
2023-05-16T10:32:27.373Z,1.30
2023-05-16T10:32:42.536Z,1.38
2023-05-16T10:32:57.255Z,1.30
2023-05-16T10:33:09.205Z,1.23
2023-05-16T10:33:21.037Z,1.20
2023-05-16T10:33:33.676Z,1.33
2023-05-16T10:33:46.032Z,1.30
2023-05-16T10:33:57.785Z,1.30
2023-05-16T10:34:10.202Z,1.20
2023-05-16T10:34:22.313Z,1.10
2023-05-16T10:34:34.297Z,1.20
2023-05-16T10:34:47.505Z,1.30
2023-05-16T10:35:01.163Z,1.40
2023-05-16T10:35:12.881Z,1.50
2023-05-16T10:35:24.842Z,1.55
2023-05-16T10:35:38.916Z,1.60
2023-05-16T10:35:52.398Z,2.03
2023-05-16T10:36:05.531Z,1.90
2023-05-16T10:36:18.368Z,1.58
2023-05-16T10:36:31.264Z,1.25
2023-05-16T10:36:43.612Z,1.27
2023-05-16T10:36:55.327Z,1.30
2023-05-16T10:37:08.397Z,1.30
2023-05-16T10:37:20.120Z,1.38
2023-05-16T10:37:32.177Z,1.50
2023-05-16T10:37:44.417Z,1.45
2023-05-16T10:37:57.291Z,1.42
2023-05-16T10:38:12.032Z,1.40
2023-05-16T10:38:24.977Z,1.35
2023-05-16T10:38:37.972Z,1.40
2023-05-16T10:38:49.968Z,1.50
2023-05-16T10:39:02.424Z,1.30
2023-05-16T10:39:15.256Z,1.35
2023-05-16T10:39:27.952Z,1.40
2023-05-16T10:39:39.852Z,1.38
2023-05-16T10:39:53.080Z,1.30
2023-05-16T10:40:07.901Z,1.17
2023-05-16T10:40:19.981Z,1.20
2023-05-16T10:40:32.033Z,1.45
2023-05-16T10:40:44.057Z,1.60
2023-05-16T10:40:56.141Z,1.48
2023-05-16T10:41:09.695Z,1.40
2023-05-16T10:41:22.053Z,1.30
2023-05-16T10:41:34.145Z,1.30
2023-05-16T10:41:46.376Z,1.20
2023-05-16T10:41:58.196Z,1.23
2023-05-16T10:42:09.938Z,1.20
2023-05-16T10:42:23.130Z,1.48
2023-05-16T10:42:35.028Z,1.45
2023-05-16T10:42:56.447Z,1.40
2023-05-16T10:43:09.116Z,1.35
2023-05-16T10:43:24.829Z,1.42
2023-05-16T10:43:37.492Z,1.27
2023-05-16T10:43:56.544Z,1.17
2023-05-16T10:44:13.803Z,1.10
2023-05-16T10:44:25.955Z,1.30
2023-05-16T10:44:39.416Z,1.33
2023-05-16T10:45:04.965Z,1.30
2023-05-16T10:45:18.241Z,1.40
2023-05-16T10:45:30.401Z,1.30
2023-05-16T10:45:42.507Z,1.10
2023-05-16T10:45:55.733Z,1.30
2023-05-16T10:46:09.664Z,1.35
2023-05-16T10:46:24.347Z,1.37
2023-05-16T10:46:38.528Z,1.30
2023-05-16T10:46:50.372Z,1.20
2023-05-16T10:47:04.485Z,1.13
2023-05-16T10:47:19.248Z,1.10
2023-05-16T10:47:31.897Z,1.30
2023-05-16T10:47:51.650Z,1.27
2023-05-16T10:48:06.495Z,1.30
2023-05-16T10:48:29.141Z,1.30
2023-05-16T10:48:43.956Z,1.40
2023-05-16T10:48:59.091Z,1.42
2023-05-16T10:49:20.923Z,1.30
2023-05-16T10:49:32.576Z,1.13
2023-05-16T10:49:44.188Z,1.20
2023-05-16T10:49:56.758Z,1.15
2023-05-16T10:50:08.997Z,1.20
2023-05-16T10:50:34.381Z,1.25
2023-05-16T10:50:46.608Z,1.27
2023-05-16T10:50:59.448Z,1.20
2023-05-16T10:51:36.431Z,1.30
2023-05-16T10:52:02.211Z,1.50
2023-05-16T10:52:15.708Z,1.25
2023-05-16T10:52:34.694Z,1.15
2023-05-16T10:52:46.354Z,1.20
2023-05-16T10:53:12.345Z,1.10
2023-05-16T10:53:32.957Z,1.00
2023-05-16T10:53:44.644Z,1.13
2023-05-16T10:54:06.204Z,1.20
2023-05-16T10:54:19.529Z,1.10
2023-05-16T10:54:38.276Z,1.10
2023-05-16T10:54:52.351Z,1.20
2023-05-16T10:55:04.821Z,1.10
2023-05-16T10:55:18.053Z,1.10
2023-05-16T10:55:30.529Z,1.08
2023-05-16T10:55:46.225Z,1.30
2023-05-16T10:56:10.378Z,1.23
2023-05-16T10:56:23.288Z,1.10
2023-05-16T10:56:35.127Z,1.15
2023-05-16T10:56:56.228Z,1.30
2023-05-16T10:57:11.720Z,1.30
2023-05-16T10:57:23.995Z,1.30
2023-05-16T10:57:36.731Z,1.35
2023-05-16T10:57:48.448Z,1.25
2023-05-16T10:58:03.282Z,1.05
2023-05-16T10:58:19.204Z,1.08
2023-05-16T10:58:41.192Z,1.30
2023-05-16T10:58:55.346Z,1.13
2023-05-16T10:59:23.076Z,1.17
2023-05-16T10:59:42.369Z,1.60
2023-05-16T10:59:58.402Z,1.33
2023-05-16T11:00:22.142Z,1.20
2023-05-16T11:00:33.886Z,1.30
2023-05-16T11:00:45.494Z,1.40
2023-05-16T11:01:15.683Z,1.30
2023-05-16T11:01:30.190Z,1.20
2023-05-16T11:01:42.006Z,1.33
2023-05-16T11:01:55.186Z,1.40
2023-05-16T11:02:21.997Z,1.20
2023-05-16T11:02:43.149Z,1.10
2023-05-16T11:03:06.571Z,1.30
2023-05-16T11:03:25.419Z,1.30
2023-05-16T11:03:37.375Z,1.20
2023-05-16T11:04:11.076Z,1.10
2023-05-16T11:04:22.761Z,1.20
2023-05-16T11:04:46.001Z,1.20
2023-05-16T11:04:59.464Z,1.10
2023-05-16T11:05:15.172Z,1.20
2023-05-16T11:05:27.696Z,1.30
2023-05-16T11:05:39.528Z,1.20
2023-05-16T11:05:53.975Z,1.20
2023-05-16T11:06:06.162Z,1.30
2023-05-16T11:06:23.521Z,1.25
2023-05-16T11:06:45.834Z,1.20
2023-05-16T11:06:58.397Z,1.20
2023-05-16T11:07:11.316Z,1.13
2023-05-16T11:07:24.183Z,1.10
2023-05-16T11:07:38.513Z,1.13
2023-05-16T11:08:04.425Z,1.35
2023-05-16T11:08:16.222Z,1.60
2023-05-16T11:08:27.907Z,1.42
2023-05-16T11:08:58.500Z,1.13
2023-05-16T11:09:22.124Z,1.10
2023-05-16T11:09:33.848Z,1.30
2023-05-16T11:09:45.777Z,1.30
2023-05-16T11:10:08.083Z,1.23
2023-05-16T11:10:21.622Z,1.10
2023-05-16T11:10:33.517Z,1.20
2023-05-16T11:10:45.556Z,1.30
2023-05-16T11:11:26.958Z,1.20
2023-05-16T11:11:44.330Z,1.00
2023-05-16T11:12:02.851Z,1.20
2023-05-16T11:12:16.103Z,1.20
2023-05-16T11:12:37.133Z,1.30
2023-05-16T11:12:49.627Z,1.20
2023-05-16T11:13:03.927Z,1.30
2023-05-16T11:13:19.583Z,1.27
2023-05-16T11:13:34.169Z,1.10
2023-05-16T11:13:57.502Z,1.13
2023-05-16T11:14:09.330Z,1.20
2023-05-16T11:14:22.161Z,1.15
2023-05-16T11:14:39.236Z,1.10
2023-05-16T11:14:52.912Z,1.10
2023-05-16T11:15:18.891Z,1.20
2023-05-16T11:15:32.441Z,1.17
2023-05-16T11:15:44.305Z,1.20
2023-05-16T11:16:28.423Z,1.10
2023-05-16T11:16:40.226Z,1.27
2023-05-16T11:16:53.606Z,1.30
2023-05-16T11:17:08.547Z,1.20
2023-05-16T11:17:22.860Z,1.33
2023-05-16T11:17:44.053Z,1.63
2023-05-16T11:18:09.762Z,1.15
2023-05-16T11:18:26.087Z,1.20
2023-05-16T11:18:50.258Z,1.20
2023-05-16T11:19:05.102Z,1.20
2023-05-16T11:19:29.358Z,1.15
2023-05-16T11:19:43.397Z,1.20
2023-05-16T11:19:59.561Z,1.13
2023-05-16T11:20:25.755Z,1.17
2023-05-16T11:20:39.370Z,1.08
2023-05-16T11:20:52.891Z,1.08
2023-05-16T11:21:04.899Z,1.10
2023-05-16T11:21:16.739Z,1.20
2023-05-16T11:22:02.937Z,1.20
2023-05-16T11:22:23.255Z,1.17
2023-05-16T11:22:41.146Z,1.00
2023-05-16T11:23:19.728Z,1.15
2023-05-16T11:23:31.485Z,1.20
2023-05-16T11:23:44.149Z,1.20
2023-05-16T11:24:28.936Z,1.20
2023-05-16T11:24:49.518Z,1.27
2023-05-16T11:25:04.158Z,1.20
2023-05-16T11:25:15.856Z,1.17
2023-05-16T11:25:36.064Z,1.20
2023-05-16T11:25:50.627Z,1.10
2023-05-16T11:26:03.425Z,0.98
2023-05-16T11:26:16.012Z,1.17
2023-05-16T11:26:27.648Z,1.30
2023-05-16T11:26:39.287Z,1.30
2023-05-16T11:26:50.931Z,1.20
2023-05-16T11:27:03.811Z,1.20
2023-05-16T11:27:21.297Z,1.20
2023-05-16T11:27:35.341Z,1.08
2023-05-16T11:27:47.970Z,1.10
2023-05-16T11:27:59.785Z,1.10
2023-05-16T11:28:13.370Z,1.05
2023-05-16T11:28:26.019Z,1.05
2023-05-16T11:28:37.681Z,1.15
2023-05-16T11:28:49.647Z,1.17
2023-05-16T11:29:03.956Z,1.17
2023-05-16T11:29:15.661Z,2.03
2023-05-16T11:29:28.781Z,3.42
2023-05-16T11:29:40.361Z,4.22
2023-05-16T11:29:52.555Z,3.97
2023-05-16T11:30:13.876Z,3.03
2023-05-16T11:30:25.472Z,1.77
2023-05-16T11:30:37.105Z,1.70
2023-05-16T11:30:51.103Z,1.63
2023-05-16T11:31:05.256Z,1.50
2023-05-16T11:31:18.257Z,1.27
2023-05-16T11:31:30.282Z,1.10
2023-05-16T11:31:42.996Z,1.23
2023-05-16T11:31:54.966Z,1.35
2023-05-16T11:32:06.965Z,1.50
2023-05-16T11:32:22.761Z,1.40
2023-05-16T11:32:35.906Z,1.20
2023-05-16T11:32:50.660Z,1.10
2023-05-16T11:33:02.702Z,1.27
2023-05-16T11:33:16.397Z,1.33
2023-05-16T11:33:31.847Z,1.45
2023-05-16T11:33:44.983Z,1.40
2023-05-16T11:33:58.409Z,1.15
2023-05-16T11:34:10.035Z,1.10
2023-05-16T11:34:21.838Z,1.10
2023-05-16T11:34:37.678Z,1.10
2023-05-16T11:34:50.904Z,1.23
2023-05-16T11:35:03.634Z,1.13
2023-05-16T11:35:16.831Z,1.10
2023-05-16T11:35:29.253Z,1.05
2023-05-16T11:35:41.280Z,1.10
2023-05-16T11:36:25.518Z,1.20
2023-05-16T11:36:38.636Z,1.10
2023-05-16T11:36:50.357Z,1.10
2023-05-16T11:37:02.641Z,1.02
2023-05-16T11:37:15.077Z,1.00
2023-05-16T11:37:27.757Z,1.08
2023-05-16T11:37:39.720Z,1.10
2023-05-16T11:37:52.042Z,1.27
2023-05-16T11:38:03.731Z,1.30
2023-05-16T11:38:16.843Z,1.27
2023-05-16T11:38:30.415Z,1.00
2023-05-16T11:38:43.779Z,0.95
2023-05-16T11:39:06.320Z,1.20
2023-05-16T11:39:19.324Z,1.30
2023-05-16T11:39:32.259Z,1.20
2023-05-16T11:39:44.060Z,1.20
2023-05-16T11:40:00.444Z,1.20
2023-05-16T11:40:13.629Z,1.40
2023-05-16T11:40:27.066Z,1.42
2023-05-16T11:40:42.608Z,1.30
2023-05-16T11:40:54.335Z,1.27
2023-05-16T11:41:07.968Z,1.23
2023-05-16T11:41:21.138Z,1.20
2023-05-16T11:41:32.880Z,1.20
2023-05-16T11:41:44.539Z,1.10
2023-05-16T11:41:56.181Z,1.20
2023-05-16T11:42:07.931Z,1.10
2023-05-16T11:42:20.688Z,1.10
2023-05-16T11:42:35.353Z,1.00
2023-05-16T11:42:47.840Z,1.10
2023-05-16T11:43:01.027Z,1.20
2023-05-16T11:43:18.327Z,1.27
2023-05-16T11:43:30.420Z,1.17
2023-05-16T11:43:44.787Z,1.00
2023-05-16T11:44:12.657Z,1.15
2023-05-16T11:44:24.360Z,1.10
2023-05-16T11:44:36.070Z,1.08
2023-05-16T11:44:47.721Z,1.00
2023-05-16T11:45:05.375Z,1.10
2023-05-16T11:45:19.912Z,1.25
2023-05-16T11:45:31.611Z,1.30
2023-05-16T11:45:43.819Z,1.23
2023-05-16T11:45:56.059Z,1.27
2023-05-16T11:46:07.892Z,1.30
2023-05-16T11:46:19.591Z,1.23
2023-05-16T11:46:32.458Z,1.08
2023-05-16T11:46:44.321Z,1.15
2023-05-16T11:46:56.582Z,1.20
2023-05-16T11:47:08.781Z,1.20
2023-05-16T11:47:20.518Z,1.30
2023-05-16T11:47:32.375Z,1.20
2023-05-16T11:47:47.915Z,1.20
2023-05-16T11:48:02.426Z,1.25
2023-05-16T11:48:24.855Z,1.30
2023-05-16T11:48:40.813Z,1.20
2023-05-16T11:48:53.495Z,1.30
2023-05-16T11:49:07.250Z,1.30
2023-05-16T11:49:18.989Z,1.10
2023-05-16T11:49:31.185Z,1.25
2023-05-16T11:49:43.271Z,1.20
2023-05-16T11:49:57.833Z,1.23
2023-05-16T11:50:14.227Z,1.10
2023-05-16T11:50:26.192Z,0.95
2023-05-16T11:50:38.121Z,0.90
2023-05-16T11:50:50.115Z,1.08
2023-05-16T11:51:01.897Z,1.27
2023-05-16T11:51:18.737Z,1.20
2023-05-16T11:51:31.004Z,1.00
2023-05-16T11:51:43.389Z,1.13
2023-05-16T11:51:57.490Z,1.10
2023-05-16T11:52:10.645Z,1.00
2023-05-16T11:52:23.311Z,0.90
2023-05-16T11:52:35.198Z,1.00
2023-05-16T11:52:48.125Z,1.00
2023-05-16T11:52:59.996Z,0.98
2023-05-16T11:53:14.251Z,0.90
2023-05-16T11:53:26.116Z,1.00
2023-05-16T11:53:38.303Z,1.55
2023-05-16T11:53:52.280Z,1.52
2023-05-16T11:54:04.999Z,0.98
2023-05-16T11:54:18.084Z,1.00
2023-05-16T11:54:29.891Z,1.02
2023-05-16T11:54:42.413Z,1.00
2023-05-16T11:54:55.016Z,1.02
2023-05-16T11:55:08.191Z,0.90
2023-05-16T11:55:36.899Z,0.90
2023-05-16T11:55:55.741Z,1.10
2023-05-16T11:56:08.906Z,1.02
2023-05-16T11:56:22.220Z,1.00
2023-05-16T11:56:36.422Z,1.08
2023-05-16T11:56:48.679Z,1.00
2023-05-16T11:57:00.587Z,0.93
2023-05-16T11:57:12.418Z,1.08
2023-05-16T11:57:24.175Z,1.10
2023-05-16T11:57:36.137Z,1.00
2023-05-16T11:57:48.899Z,0.88
2023-05-16T11:58:00.946Z,1.00
2023-05-16T11:58:12.840Z,1.08
2023-05-16T11:58:24.631Z,1.10
2023-05-16T11:58:36.934Z,1.05
2023-05-16T11:58:50.558Z,1.05
2023-05-16T11:59:02.463Z,1.00
2023-05-16T11:59:15.719Z,1.00
2023-05-16T11:59:27.669Z,1.10
2023-05-16T11:59:41.541Z,1.10
2023-05-16T11:59:53.381Z,1.10
2023-05-16T12:00:08.034Z,0.90
2023-05-16T12:00:21.829Z,0.80
2023-05-16T12:00:34.682Z,0.90
2023-05-16T12:00:50.039Z,1.10
2023-05-16T12:01:05.346Z,1.00
2023-05-16T12:01:17.164Z,0.95
2023-05-16T12:01:32.506Z,1.10
2023-05-16T12:01:44.212Z,1.10
2023-05-16T12:01:55.949Z,1.20
2023-05-16T12:02:09.817Z,1.20
2023-05-16T12:02:21.989Z,1.20
2023-05-16T12:02:34.364Z,1.10
2023-05-16T12:02:50.228Z,1.00
2023-05-16T12:03:04.572Z,1.10
2023-05-16T12:03:19.104Z,1.40
2023-05-16T12:03:33.594Z,1.40
2023-05-16T12:03:45.683Z,1.20
2023-05-16T12:03:58.255Z,1.20
2023-05-16T12:04:12.506Z,1.13
2023-05-16T12:04:24.687Z,1.00
2023-05-16T12:04:38.288Z,1.10
2023-05-16T12:04:50.689Z,1.17
2023-05-16T12:05:10.043Z,1.20
2023-05-16T12:05:25.488Z,1.20
2023-05-16T12:05:37.620Z,1.20
2023-05-16T12:05:53.531Z,1.10
2023-05-16T12:06:05.495Z,0.95
2023-05-16T12:06:17.339Z,1.10
2023-05-16T12:06:31.306Z,1.10
2023-05-16T12:06:44.537Z,1.30
2023-05-16T12:07:02.528Z,1.33
2023-05-16T12:07:15.029Z,1.17
2023-05-16T12:07:28.484Z,1.13
2023-05-16T12:07:41.850Z,0.90
2023-05-16T12:07:54.375Z,0.90
2023-05-16T12:08:07.133Z,1.00
2023-05-16T12:08:19.037Z,1.08
2023-05-16T12:08:31.157Z,1.10
2023-05-16T12:08:51.100Z,1.00
2023-05-16T12:09:07.473Z,0.90
2023-05-16T12:09:19.206Z,0.90
2023-05-16T12:09:32.058Z,0.98
2023-05-16T12:09:53.546Z,1.20
2023-05-16T12:10:07.218Z,1.15
2023-05-16T12:10:18.920Z,1.13
2023-05-16T12:10:31.895Z,1.40
2023-05-16T12:10:46.229Z,1.30
2023-05-16T12:10:59.085Z,1.05
2023-05-16T12:11:10.866Z,1.10
2023-05-16T12:11:23.779Z,1.10
2023-05-16T12:11:35.657Z,1.05
2023-05-16T12:11:47.316Z,1.00
2023-05-16T12:12:00.171Z,1.30
2023-05-16T12:12:11.926Z,1.20
2023-05-16T12:12:23.791Z,1.13
2023-05-16T12:12:36.016Z,1.00
2023-05-16T12:12:48.605Z,1.00
2023-05-16T12:13:00.322Z,0.90
2023-05-16T12:13:13.045Z,1.08
2023-05-16T12:13:25.484Z,1.20
2023-05-16T12:13:37.201Z,1.10
2023-05-16T12:13:49.232Z,0.90
2023-05-16T12:14:01.163Z,1.00
2023-05-16T12:14:16.047Z,1.00
2023-05-16T12:14:27.942Z,1.00
2023-05-16T12:14:39.706Z,1.08
2023-05-16T12:14:51.554Z,1.10
2023-05-16T12:15:04.342Z,1.10
2023-05-16T12:15:17.316Z,1.02
2023-05-16T12:15:29.569Z,1.20
2023-05-16T12:15:42.646Z,1.10
2023-05-16T12:15:54.645Z,1.00
2023-05-16T12:16:06.918Z,1.10
2023-05-16T12:16:19.011Z,1.20
2023-05-16T12:16:32.903Z,1.25
2023-05-16T12:16:46.515Z,1.08
2023-05-16T12:16:58.505Z,0.90
2023-05-16T12:17:11.058Z,1.00
2023-05-16T12:17:22.981Z,1.02
2023-05-16T12:17:34.868Z,1.10
2023-05-16T12:17:48.165Z,1.08
2023-05-16T12:18:00.107Z,1.00
2023-05-16T12:18:14.143Z,1.05
2023-05-16T12:18:26.344Z,1.20
2023-05-16T12:18:41.219Z,1.20
2023-05-16T12:18:54.581Z,1.10
2023-05-16T12:19:07.939Z,1.30
2023-05-16T12:19:20.497Z,1.40
2023-05-16T12:19:32.593Z,1.25
2023-05-16T12:19:46.445Z,1.10
2023-05-16T12:19:58.327Z,1.10
2023-05-16T12:20:13.472Z,1.10
2023-05-16T12:20:28.924Z,1.05
2023-05-16T12:20:41.005Z,1.13
2023-05-16T12:20:53.366Z,1.17
2023-05-16T12:21:05.810Z,1.20
2023-05-16T12:21:19.648Z,1.15
2023-05-16T12:21:31.919Z,1.20
2023-05-16T12:21:43.588Z,1.20
2023-05-16T12:21:55.390Z,1.20
2023-05-16T12:22:17.360Z,1.17
2023-05-16T12:22:29.122Z,1.30
2023-05-16T12:22:43.912Z,1.40
2023-05-16T12:22:58.176Z,1.17
2023-05-16T12:23:11.551Z,1.00
2023-05-16T12:23:24.668Z,1.10
2023-05-16T12:23:36.387Z,1.23
2023-05-16T12:23:48.178Z,1.20
2023-05-16T12:24:00.129Z,1.20
2023-05-16T12:24:12.719Z,1.20
2023-05-16T12:24:30.428Z,1.20
2023-05-16T12:24:43.178Z,1.20
2023-05-16T12:24:54.935Z,1.08
2023-05-16T12:25:23.415Z,1.20
2023-05-16T12:25:37.443Z,1.10
2023-05-16T12:25:51.095Z,1.10
2023-05-16T12:26:06.867Z,1.00
2023-05-16T12:26:26.820Z,1.00
2023-05-16T12:26:41.275Z,1.00
2023-05-16T12:26:54.660Z,1.10
2023-05-16T12:27:08.519Z,1.13
2023-05-16T12:27:23.910Z,0.98
2023-05-16T12:27:35.748Z,1.00
2023-05-16T12:27:47.467Z,1.02
2023-05-16T12:28:01.506Z,1.17
2023-05-16T12:28:14.385Z,1.05
2023-05-16T12:28:30.962Z,1.10
2023-05-16T12:28:44.485Z,1.33
2023-05-16T12:29:00.593Z,1.27
2023-05-16T12:29:13.376Z,1.23
2023-05-16T12:29:26.707Z,1.10
2023-05-16T12:29:47.419Z,1.10
2023-05-16T12:29:59.136Z,1.20
2023-05-16T12:30:12.241Z,1.30
2023-05-16T12:30:24.856Z,1.08
2023-05-16T12:30:37.635Z,1.02
2023-05-16T12:30:49.338Z,1.00
2023-05-16T12:31:01.051Z,1.05
2023-05-16T12:31:31.032Z,1.25
2023-05-16T12:31:44.734Z,1.10
2023-05-16T12:31:56.570Z,1.10
2023-05-16T12:32:08.756Z,1.20
2023-05-16T12:32:21.141Z,1.20
2023-05-16T12:32:37.235Z,1.17
2023-05-16T12:32:53.340Z,1.10
2023-05-16T12:33:11.037Z,1.10
2023-05-16T12:33:22.988Z,1.10
2023-05-16T12:33:37.433Z,1.25
2023-05-16T12:33:53.124Z,1.23
2023-05-16T12:34:05.805Z,1.08
2023-05-16T12:34:18.328Z,1.00
2023-05-16T12:34:30.488Z,0.90
2023-05-16T12:34:49.370Z,1.00
2023-05-16T12:35:03.174Z,1.08
2023-05-16T12:35:15.163Z,1.20
2023-05-16T12:35:30.710Z,1.30
2023-05-16T12:35:43.846Z,1.48
2023-05-16T12:35:57.011Z,1.55
2023-05-16T12:36:14.393Z,1.55
2023-05-16T12:36:32.152Z,1.40
2023-05-16T12:36:44.530Z,1.20